sensor_id;sensor_type;location;lat;lon;timestamp;P1;durP1;ratioP1;P2;durP2;ratioP2
8088;SDS011;57635;49.194;12.104;2022-12-28T00:02:23;10.17;;;9.23;;
8088;SDS011;57635;49.194;12.104;2022-12-28T00:04:51;10.80;;;9.80;;
8088;SDS011;57635;49.194;12.104;2022-12-28T00:07:19;9.70;;;8.80;;
8088;SDS011;57635;49.194;12.104;2022-12-28T00:09:46;9.90;;;8.83;;
8088;SDS011;57635;49.194;12.104;2022-12-28T00:12:14;10.07;;;9.07;;
8088;SDS011;57635;49.194;12.104;2022-12-28T00:14:43;10.50;;;9.40;;
8088;SDS011;57635;49.194;12.104;2022-12-28T00:17:11;10.20;;;9.13;;
8088;SDS011;57635;49.194;12.104;2022-12-28T00:19:39;12.53;;;9.83;;
8088;SDS011;57635;49.194;12.104;2022-12-28T00:22:06;10.27;;;9.37;;
8088;SDS011;57635;49.194;12.104;2022-12-28T00:24:34;11.83;;;9.53;;
8088;SDS011;57635;49.194;12.104;2022-12-28T00:27:01;9.87;;;9.07;;
8088;SDS011;57635;49.194;12.104;2022-12-28T00:29:29;11.83;;;10.83;;
8088;SDS011;57635;49.194;12.104;2022-12-28T00:31:58;11.03;;;9.93;;
8088;SDS011;57635;49.194;12.104;2022-12-28T00:34:26;11.83;;;10.63;;
8088;SDS011;57635;49.194;12.104;2022-12-28T00:36:53;11.07;;;10.07;;
8088;SDS011;57635;49.194;12.104;2022-12-28T00:39:37;10.27;;;9.30;;
8088;SDS011;57635;49.194;12.104;2022-12-28T00:42:05;10.97;;;9.83;;
8088;SDS011;57635;49.194;12.104;2022-12-28T00:44:33;10.87;;;9.87;;
8088;SDS011;57635;49.194;12.104;2022-12-28T00:47:02;11.47;;;10.17;;
8088;SDS011;57635;49.194;12.104;2022-12-28T00:49:29;10.77;;;9.70;;
8088;SDS011;57635;49.194;12.104;2022-12-28T00:51:57;10.57;;;8.90;;
8088;SDS011;57635;49.194;12.104;2022-12-28T00:54:24;10.97;;;9.87;;
8088;SDS011;57635;49.194;12.104;2022-12-28T00:56:52;10.90;;;9.90;;
8088;SDS011;57635;49.194;12.104;2022-12-28T00:59:19;11.33;;;10.13;;
8088;SDS011;57635;49.194;12.104;2022-12-28T01:01:47;13.50;;;9.40;;
8088;SDS011;57635;49.194;12.104;2022-12-28T01:04:16;10.87;;;9.87;;
8088;SDS011;57635;49.194;12.104;2022-12-28T01:06:43;9.80;;;8.90;;
8088;SDS011;57635;49.194;12.104;2022-12-28T01:09:11;9.20;;;8.30;;
8088;SDS011;57635;49.194;12.104;2022-12-28T01:11:38;10.03;;;9.13;;
8088;SDS011;57635;49.194;12.104;2022-12-28T01:14:06;11.17;;;8.50;;
8088;SDS011;57635;49.194;12.104;2022-12-28T01:16:34;9.27;;;8.30;;
8088;SDS011;57635;49.194;12.104;2022-12-28T01:19:03;11.40;;;10.33;;
8088;SDS011;57635;49.194;12.104;2022-12-28T01:21:33;9.80;;;9.07;;
8088;SDS011;57635;49.194;12.104;2022-12-28T01:24:03;11.77;;;9.77;;
8088;SDS011;57635;49.194;12.104;2022-12-28T01:26:33;11.77;;;9.37;;
8088;SDS011;57635;49.194;12.104;2022-12-28T01:29:00;9.97;;;9.07;;
8088;SDS011;57635;49.194;12.104;2022-12-28T01:31:28;11.63;;;9.70;;
8088;SDS011;57635;49.194;12.104;2022-12-28T01:33:56;11.40;;;9.63;;
8088;SDS011;57635;49.194;12.104;2022-12-28T01:36:24;11.17;;;10.10;;
8088;SDS011;57635;49.194;12.104;2022-12-28T01:38:54;10.17;;;9.13;;
8088;SDS011;57635;49.194;12.104;2022-12-28T01:41:23;11.17;;;8.97;;
8088;SDS011;57635;49.194;12.104;2022-12-28T01:46:59;11.37;;;10.17;;
8088;SDS011;57635;49.194;12.104;2022-12-28T01:49:29;10.83;;;9.83;;
8088;SDS011;57635;49.194;12.104;2022-12-28T01:51:58;10.93;;;9.67;;
8088;SDS011;57635;49.194;12.104;2022-12-28T01:54:29;10.13;;;9.33;;
8088;SDS011;57635;49.194;12.104;2022-12-28T01:57:00;10.50;;;9.50;;
8088;SDS011;57635;49.194;12.104;2022-12-28T01:59:29;10.43;;;9.53;;
8088;SDS011;57635;49.194;12.104;2022-12-28T02:01:58;10.27;;;9.00;;
8088;SDS011;57635;49.194;12.104;2022-12-28T02:04:27;10.03;;;9.10;;
8088;SDS011;57635;49.194;12.104;2022-12-28T02:06:54;9.87;;;9.00;;
8088;SDS011;57635;49.194;12.104;2022-12-28T02:09:23;12.37;;;9.93;;
8088;SDS011;57635;49.194;12.104;2022-12-28T02:11:53;10.63;;;9.63;;
8088;SDS011;57635;49.194;12.104;2022-12-28T02:14:21;11.20;;;9.67;;
8088;SDS011;57635;49.194;12.104;2022-12-28T02:16:49;10.47;;;9.57;;
8088;SDS011;57635;49.194;12.104;2022-12-28T02:19:17;11.00;;;9.97;;
8088;SDS011;57635;49.194;12.104;2022-12-28T02:21:55;10.80;;;8.23;;
8088;SDS011;57635;49.194;12.104;2022-12-28T02:24:44;9.97;;;9.00;;
8088;SDS011;57635;49.194;12.104;2022-12-28T02:27:42;10.07;;;9.17;;
8088;SDS011;57635;49.194;12.104;2022-12-28T02:30:17;9.67;;;8.73;;
8088;SDS011;57635;49.194;12.104;2022-12-28T02:32:49;9.70;;;8.90;;
8088;SDS011;57635;49.194;12.104;2022-12-28T02:35:23;9.23;;;8.43;;
8088;SDS011;57635;49.194;12.104;2022-12-28T02:37:56;11.17;;;9.87;;
8088;SDS011;57635;49.194;12.104;2022-12-28T02:40:27;9.87;;;8.90;;
8088;SDS011;57635;49.194;12.104;2022-12-28T02:42:59;13.30;;;9.53;;
8088;SDS011;57635;49.194;12.104;2022-12-28T02:45:36;11.00;;;9.93;;
8088;SDS011;57635;49.194;12.104;2022-12-28T02:48:23;10.50;;;9.43;;
8088;SDS011;57635;49.194;12.104;2022-12-28T02:54:14;10.43;;;9.43;;
8088;SDS011;57635;49.194;12.104;2022-12-28T02:57:28;11.67;;;9.30;;
8088;SDS011;57635;49.194;12.104;2022-12-28T03:00:04;11.63;;;9.50;;
8088;SDS011;57635;49.194;12.104;2022-12-28T03:02:40;10.77;;;9.67;;
8088;SDS011;57635;49.194;12.104;2022-12-28T03:05:16;11.83;;;10.53;;
8088;SDS011;57635;49.194;12.104;2022-12-28T03:08:08;10.17;;;9.13;;
8088;SDS011;57635;49.194;12.104;2022-12-28T03:10:45;9.53;;;8.47;;
8088;SDS011;57635;49.194;12.104;2022-12-28T03:13:19;10.67;;;9.67;;
8088;SDS011;57635;49.194;12.104;2022-12-28T03:16:09;10.50;;;9.50;;
8088;SDS011;57635;49.194;12.104;2022-12-28T03:18:41;9.77;;;8.87;;
8088;SDS011;57635;49.194;12.104;2022-12-28T03:21:26;9.80;;;8.90;;
8088;SDS011;57635;49.194;12.104;2022-12-28T03:24:13;9.87;;;8.87;;
8088;SDS011;57635;49.194;12.104;2022-12-28T03:26:59;10.50;;;9.60;;
8088;SDS011;57635;49.194;12.104;2022-12-28T03:29:46;10.73;;;9.63;;
8088;SDS011;57635;49.194;12.104;2022-12-28T03:32:33;9.83;;;8.73;;
8088;SDS011;57635;49.194;12.104;2022-12-28T03:35:02;11.10;;;10.00;;
8088;SDS011;57635;49.194;12.104;2022-12-28T03:37:31;11.87;;;10.77;;
8088;SDS011;57635;49.194;12.104;2022-12-28T03:40:01;10.63;;;9.73;;
8088;SDS011;57635;49.194;12.104;2022-12-28T03:42:33;10.73;;;9.53;;
8088;SDS011;57635;49.194;12.104;2022-12-28T03:45:21;10.87;;;9.23;;
8088;SDS011;57635;49.194;12.104;2022-12-28T03:48:12;10.97;;;9.97;;
8088;SDS011;57635;49.194;12.104;2022-12-28T03:50:43;10.47;;;9.43;;
8088;SDS011;57635;49.194;12.104;2022-12-28T03:53:12;9.90;;;9.00;;
8088;SDS011;57635;49.194;12.104;2022-12-28T03:55:40;9.93;;;9.13;;
8088;SDS011;57635;49.194;12.104;2022-12-28T03:58:08;10.20;;;9.20;;
8088;SDS011;57635;49.194;12.104;2022-12-28T04:00:36;10.40;;;9.30;;
8088;SDS011;57635;49.194;12.104;2022-12-28T04:03:04;11.20;;;10.10;;
8088;SDS011;57635;49.194;12.104;2022-12-28T04:05:31;10.83;;;9.80;;
8088;SDS011;57635;49.194;12.104;2022-12-28T04:08:00;11.30;;;10.37;;
8088;SDS011;57635;49.194;12.104;2022-12-28T04:10:28;10.63;;;9.63;;
8088;SDS011;57635;49.194;12.104;2022-12-28T04:12:55;9.30;;;8.50;;
8088;SDS011;57635;49.194;12.104;2022-12-28T04:15:23;11.23;;;10.07;;
8088;SDS011;57635;49.194;12.104;2022-12-28T04:17:50;11.53;;;10.07;;
8088;SDS011;57635;49.194;12.104;2022-12-28T04:20:18;11.20;;;9.80;;
8088;SDS011;57635;49.194;12.104;2022-12-28T04:22:46;11.33;;;10.17;;
8088;SDS011;57635;49.194;12.104;2022-12-28T04:25:15;10.63;;;9.53;;
8088;SDS011;57635;49.194;12.104;2022-12-28T04:27:42;11.70;;;10.60;;
8088;SDS011;57635;49.194;12.104;2022-12-28T04:30:10;13.57;;;10.23;;
8088;SDS011;57635;49.194;12.104;2022-12-28T04:32:38;12.50;;;10.97;;
8088;SDS011;57635;49.194;12.104;2022-12-28T04:35:06;11.30;;;10.17;;
8088;SDS011;57635;49.194;12.104;2022-12-28T04:37:35;12.00;;;10.90;;
8088;SDS011;57635;49.194;12.104;2022-12-28T04:40:03;14.80;;;10.93;;
8088;SDS011;57635;49.194;12.104;2022-12-28T04:42:32;13.07;;;11.77;;
8088;SDS011;57635;49.194;12.104;2022-12-28T04:45:00;13.53;;;12.23;;
8088;SDS011;57635;49.194;12.104;2022-12-28T04:47:27;12.23;;;11.03;;
8088;SDS011;57635;49.194;12.104;2022-12-28T04:49:55;12.50;;;11.40;;
8088;SDS011;57635;49.194;12.104;2022-12-28T04:52:22;13.27;;;12.03;;
8088;SDS011;57635;49.194;12.104;2022-12-28T04:54:50;13.23;;;11.43;;
8088;SDS011;57635;49.194;12.104;2022-12-28T04:57:18;15.67;;;11.37;;
8088;SDS011;57635;49.194;12.104;2022-12-28T04:59:47;11.73;;;10.37;;
8088;SDS011;57635;49.194;12.104;2022-12-28T05:02:14;12.50;;;11.30;;
8088;SDS011;57635;49.194;12.104;2022-12-28T05:04:42;12.03;;;10.83;;
8088;SDS011;57635;49.194;12.104;2022-12-28T05:07:10;13.57;;;11.93;;
8088;SDS011;57635;49.194;12.104;2022-12-28T05:09:37;13.10;;;11.63;;
8088;SDS011;57635;49.194;12.104;2022-12-28T05:12:05;17.07;;;13.03;;
8088;SDS011;57635;49.194;12.104;2022-12-28T05:14:32;12.87;;;11.63;;
8088;SDS011;57635;49.194;12.104;2022-12-28T05:17:04;13.50;;;12.03;;
8088;SDS011;57635;49.194;12.104;2022-12-28T05:19:31;13.63;;;12.33;;
8088;SDS011;57635;49.194;12.104;2022-12-28T05:21:59;15.70;;;13.00;;
8088;SDS011;57635;49.194;12.104;2022-12-28T05:24:26;13.50;;;12.20;;
8088;SDS011;57635;49.194;12.104;2022-12-28T05:26:54;16.10;;;12.87;;
8088;SDS011;57635;49.194;12.104;2022-12-28T05:29:22;14.37;;;12.97;;
8088;SDS011;57635;49.194;12.104;2022-12-28T05:31:49;15.53;;;14.13;;
8088;SDS011;57635;49.194;12.104;2022-12-28T05:34:18;15.73;;;14.33;;
8088;SDS011;57635;49.194;12.104;2022-12-28T05:36:46;15.93;;;14.23;;
8088;SDS011;57635;49.194;12.104;2022-12-28T05:39:13;15.27;;;13.33;;
8088;SDS011;57635;49.194;12.104;2022-12-28T05:41:41;14.57;;;13.13;;
8088;SDS011;57635;49.194;12.104;2022-12-28T05:44:09;14.87;;;13.33;;
8088;SDS011;57635;49.194;12.104;2022-12-28T05:46:36;14.83;;;13.33;;
8088;SDS011;57635;49.194;12.104;2022-12-28T05:49:06;15.87;;;13.83;;
8088;SDS011;57635;49.194;12.104;2022-12-28T05:51:35;14.87;;;13.33;;
8088;SDS011;57635;49.194;12.104;2022-12-28T05:54:05;13.40;;;12.10;;
8088;SDS011;57635;49.194;12.104;2022-12-28T05:56:33;14.87;;;13.37;;
8088;SDS011;57635;49.194;12.104;2022-12-28T05:59:01;14.37;;;12.97;;
8088;SDS011;57635;49.194;12.104;2022-12-28T06:01:31;14.50;;;13.20;;
8088;SDS011;57635;49.194;12.104;2022-12-28T06:04:00;15.53;;;14.13;;
8088;SDS011;57635;49.194;12.104;2022-12-28T06:06:28;18.42;;;16.63;;
8088;SDS011;57635;49.194;12.104;2022-12-28T06:08:58;21.08;;;19.17;;
8088;SDS011;57635;49.194;12.104;2022-12-28T06:11:27;17.33;;;15.63;;
8088;SDS011;57635;49.194;12.104;2022-12-28T06:13:56;17.60;;;14.43;;
8088;SDS011;57635;49.194;12.104;2022-12-28T06:16:26;15.87;;;14.40;;
8088;SDS011;57635;49.194;12.104;2022-12-28T06:18:54;17.07;;;14.60;;
8088;SDS011;57635;49.194;12.104;2022-12-28T06:21:23;15.93;;;14.27;;
8088;SDS011;57635;49.194;12.104;2022-12-28T06:23:52;15.03;;;13.63;;
8088;SDS011;57635;49.194;12.104;2022-12-28T06:26:24;14.40;;;13.00;;
8088;SDS011;57635;49.194;12.104;2022-12-28T06:28:52;14.77;;;13.37;;
8088;SDS011;57635;49.194;12.104;2022-12-28T06:31:21;15.60;;;12.83;;
8088;SDS011;57635;49.194;12.104;2022-12-28T06:33:50;15.63;;;14.00;;
8088;SDS011;57635;49.194;12.104;2022-12-28T06:36:20;16.03;;;14.40;;
8088;SDS011;57635;49.194;12.104;2022-12-28T06:38:49;15.67;;;14.00;;
8088;SDS011;57635;49.194;12.104;2022-12-28T06:41:18;15.47;;;14.00;;
8088;SDS011;57635;49.194;12.104;2022-12-28T06:43:48;16.57;;;14.87;;
8088;SDS011;57635;49.194;12.104;2022-12-28T06:46:17;18.17;;;16.27;;
8088;SDS011;57635;49.194;12.104;2022-12-28T06:48:45;20.97;;;14.30;;
8088;SDS011;57635;49.194;12.104;2022-12-28T06:51:13;17.80;;;16.00;;
8088;SDS011;57635;49.194;12.104;2022-12-28T06:53:42;16.40;;;14.50;;
8088;SDS011;57635;49.194;12.104;2022-12-28T06:56:11;16.90;;;15.30;;
8088;SDS011;57635;49.194;12.104;2022-12-28T06:58:39;23.03;;;19.53;;
8088;SDS011;57635;49.194;12.104;2022-12-28T07:01:09;23.43;;;20.97;;
8088;SDS011;57635;49.194;12.104;2022-12-28T07:03:39;17.63;;;15.83;;
8088;SDS011;57635;49.194;12.104;2022-12-28T07:06:07;15.77;;;14.17;;
8088;SDS011;57635;49.194;12.104;2022-12-28T07:08:34;16.47;;;14.93;;
8088;SDS011;57635;49.194;12.104;2022-12-28T07:11:02;16.33;;;14.73;;
8088;SDS011;57635;49.194;12.104;2022-12-28T07:13:31;17.63;;;15.67;;
8088;SDS011;57635;49.194;12.104;2022-12-28T07:16:00;18.43;;;16.53;;
8088;SDS011;57635;49.194;12.104;2022-12-28T07:18:29;17.60;;;15.90;;
8088;SDS011;57635;49.194;12.104;2022-12-28T07:20:58;18.00;;;16.20;;
8088;SDS011;57635;49.194;12.104;2022-12-28T07:23:26;17.13;;;15.47;;
8088;SDS011;57635;49.194;12.104;2022-12-28T07:25:56;16.13;;;14.60;;
8088;SDS011;57635;49.194;12.104;2022-12-28T07:28:24;16.63;;;15.13;;
8088;SDS011;57635;49.194;12.104;2022-12-28T07:30:52;17.00;;;15.30;;
8088;SDS011;57635;49.194;12.104;2022-12-28T07:33:19;19.10;;;16.07;;
8088;SDS011;57635;49.194;12.104;2022-12-28T07:35:48;16.73;;;15.13;;
8088;SDS011;57635;49.194;12.104;2022-12-28T07:38:16;16.73;;;15.03;;
8088;SDS011;57635;49.194;12.104;2022-12-28T07:40:46;16.00;;;14.50;;
8088;SDS011;57635;49.194;12.104;2022-12-28T07:43:14;16.57;;;14.93;;
8088;SDS011;57635;49.194;12.104;2022-12-28T07:45:42;17.87;;;15.97;;
8088;SDS011;57635;49.194;12.104;2022-12-28T07:48:09;17.17;;;15.37;;
8088;SDS011;57635;49.194;12.104;2022-12-28T07:50:37;16.93;;;15.43;;
8088;SDS011;57635;49.194;12.104;2022-12-28T07:53:06;18.37;;;16.67;;
8088;SDS011;57635;49.194;12.104;2022-12-28T07:55:33;16.00;;;14.47;;
8088;SDS011;57635;49.194;12.104;2022-12-28T07:58:01;16.87;;;15.13;;
8088;SDS011;57635;49.194;12.104;2022-12-28T08:00:28;17.00;;;15.33;;
8088;SDS011;57635;49.194;12.104;2022-12-28T08:02:56;17.33;;;15.60;;
8088;SDS011;57635;49.194;12.104;2022-12-28T08:05:24;16.00;;;14.50;;
8088;SDS011;57635;49.194;12.104;2022-12-28T08:07:51;16.87;;;15.37;;
8088;SDS011;57635;49.194;12.104;2022-12-28T08:10:26;17.27;;;15.47;;
8088;SDS011;57635;49.194;12.104;2022-12-28T08:12:53;15.57;;;14.07;;
8088;SDS011;57635;49.194;12.104;2022-12-28T08:15:21;17.33;;;15.37;;
8088;SDS011;57635;49.194;12.104;2022-12-28T08:17:49;16.97;;;15.37;;
8088;SDS011;57635;49.194;12.104;2022-12-28T08:20:16;16.40;;;14.70;;
8088;SDS011;57635;49.194;12.104;2022-12-28T08:22:44;17.70;;;16.00;;
8088;SDS011;57635;49.194;12.104;2022-12-28T08:25:12;16.07;;;14.50;;
8088;SDS011;57635;49.194;12.104;2022-12-28T08:27:41;16.83;;;15.17;;
8088;SDS011;57635;49.194;12.104;2022-12-28T08:30:09;17.83;;;15.90;;
8088;SDS011;57635;49.194;12.104;2022-12-28T08:32:37;15.50;;;13.90;;
8088;SDS011;57635;49.194;12.104;2022-12-28T08:35:05;15.30;;;13.90;;
8088;SDS011;57635;49.194;12.104;2022-12-28T08:37:33;15.60;;;14.03;;
8088;SDS011;57635;49.194;12.104;2022-12-28T08:40:01;14.37;;;12.93;;
8088;SDS011;57635;49.194;12.104;2022-12-28T08:42:28;14.53;;;13.07;;
8088;SDS011;57635;49.194;12.104;2022-12-28T08:44:57;14.90;;;13.40;;
8088;SDS011;57635;49.194;12.104;2022-12-28T08:47:25;14.33;;;13.00;;
8088;SDS011;57635;49.194;12.104;2022-12-28T08:49:52;13.47;;;12.33;;
8088;SDS011;57635;49.194;12.104;2022-12-28T08:52:20;13.30;;;11.93;;
8088;SDS011;57635;49.194;12.104;2022-12-28T08:54:49;12.83;;;11.63;;
8088;SDS011;57635;49.194;12.104;2022-12-28T08:57:17;13.00;;;11.70;;
8088;SDS011;57635;49.194;12.104;2022-12-28T08:59:44;13.03;;;11.93;;
8088;SDS011;57635;49.194;12.104;2022-12-28T09:02:13;13.40;;;12.20;;
8088;SDS011;57635;49.194;12.104;2022-12-28T09:04:41;12.77;;;11.47;;
8088;SDS011;57635;49.194;12.104;2022-12-28T09:07:09;12.90;;;11.70;;
8088;SDS011;57635;49.194;12.104;2022-12-28T09:09:36;12.97;;;11.77;;
8088;SDS011;57635;49.194;12.104;2022-12-28T09:12:04;13.43;;;12.33;;
8088;SDS011;57635;49.194;12.104;2022-12-28T09:14:32;12.60;;;11.40;;
8088;SDS011;57635;49.194;12.104;2022-12-28T09:17:00;12.20;;;10.20;;
8088;SDS011;57635;49.194;12.104;2022-12-28T09:19:29;10.80;;;9.70;;
8088;SDS011;57635;49.194;12.104;2022-12-28T09:21:56;10.77;;;9.67;;
8088;SDS011;57635;49.194;12.104;2022-12-28T09:24:24;11.00;;;9.90;;
8088;SDS011;57635;49.194;12.104;2022-12-28T09:26:51;10.90;;;9.87;;
8088;SDS011;57635;49.194;12.104;2022-12-28T09:29:20;10.30;;;9.50;;
8088;SDS011;57635;49.194;12.104;2022-12-28T09:31:48;11.40;;;10.40;;
8088;SDS011;57635;49.194;12.104;2022-12-28T09:34:15;10.00;;;9.20;;
8088;SDS011;57635;49.194;12.104;2022-12-28T09:37:04;10.53;;;9.63;;
8088;SDS011;57635;49.194;12.104;2022-12-28T09:39:32;10.43;;;9.53;;
8088;SDS011;57635;49.194;12.104;2022-12-28T09:42:01;9.90;;;9.10;;
8088;SDS011;57635;49.194;12.104;2022-12-28T09:44:32;10.33;;;9.40;;
8088;SDS011;57635;49.194;12.104;2022-12-28T09:47:08;9.00;;;8.30;;
8088;SDS011;57635;49.194;12.104;2022-12-28T09:49:43;9.73;;;8.73;;
8088;SDS011;57635;49.194;12.104;2022-12-28T09:52:21;9.97;;;9.07;;
8088;SDS011;57635;49.194;12.104;2022-12-28T09:54:52;9.90;;;8.77;;
8088;SDS011;57635;49.194;12.104;2022-12-28T09:57:20;9.47;;;8.67;;
8088;SDS011;57635;49.194;12.104;2022-12-28T09:59:48;9.17;;;8.47;;
8088;SDS011;57635;49.194;12.104;2022-12-28T10:02:18;9.63;;;8.73;;
8088;SDS011;57635;49.194;12.104;2022-12-28T10:04:50;8.93;;;8.23;;
8088;SDS011;57635;49.194;12.104;2022-12-28T10:07:18;9.10;;;8.20;;
8088;SDS011;57635;49.194;12.104;2022-12-28T10:09:47;9.20;;;8.30;;
8088;SDS011;57635;49.194;12.104;2022-12-28T10:12:15;8.53;;;7.57;;
8088;SDS011;57635;49.194;12.104;2022-12-28T10:14:44;7.90;;;7.40;;
8088;SDS011;57635;49.194;12.104;2022-12-28T10:17:12;8.53;;;7.83;;
8088;SDS011;57635;49.194;12.104;2022-12-28T10:19:43;8.30;;;7.60;;
8088;SDS011;57635;49.194;12.104;2022-12-28T10:22:12;8.70;;;8.00;;
8088;SDS011;57635;49.194;12.104;2022-12-28T10:24:42;7.70;;;7.10;;
8088;SDS011;57635;49.194;12.104;2022-12-28T10:27:12;7.73;;;7.13;;
8088;SDS011;57635;49.194;12.104;2022-12-28T10:29:44;7.60;;;7.00;;
8088;SDS011;57635;49.194;12.104;2022-12-28T10:32:11;7.17;;;6.50;;
8088;SDS011;57635;49.194;12.104;2022-12-28T10:34:44;6.57;;;5.97;;
8088;SDS011;57635;49.194;12.104;2022-12-28T10:37:20;7.03;;;6.47;;
8088;SDS011;57635;49.194;12.104;2022-12-28T10:39:48;6.77;;;6.20;;
8088;SDS011;57635;49.194;12.104;2022-12-28T10:42:22;5.93;;;5.43;;
8088;SDS011;57635;49.194;12.104;2022-12-28T10:44:52;6.80;;;6.30;;
8088;SDS011;57635;49.194;12.104;2022-12-28T10:47:26;6.33;;;5.93;;
8088;SDS011;57635;49.194;12.104;2022-12-28T10:49:56;7.13;;;6.53;;
8088;SDS011;57635;49.194;12.104;2022-12-28T10:52:49;6.70;;;6.00;;
8088;SDS011;57635;49.194;12.104;2022-12-28T10:55:26;5.97;;;5.47;;
8088;SDS011;57635;49.194;12.104;2022-12-28T10:57:56;6.60;;;6.10;;
8088;SDS011;57635;49.194;12.104;2022-12-28T11:00:56;6.03;;;5.63;;
8088;SDS011;57635;49.194;12.104;2022-12-28T11:03:25;6.40;;;6.00;;
8088;SDS011;57635;49.194;12.104;2022-12-28T11:06:11;5.87;;;5.40;;
8088;SDS011;57635;49.194;12.104;2022-12-28T11:08:41;7.50;;;6.43;;
8088;SDS011;57635;49.194;12.104;2022-12-28T11:11:16;6.67;;;6.17;;
8088;SDS011;57635;49.194;12.104;2022-12-28T11:13:48;6.10;;;5.70;;
8088;SDS011;57635;49.194;12.104;2022-12-28T11:16:17;6.63;;;6.10;;
8088;SDS011;57635;49.194;12.104;2022-12-28T11:18:46;6.80;;;6.27;;
8088;SDS011;57635;49.194;12.104;2022-12-28T11:21:15;7.20;;;6.60;;
8088;SDS011;57635;49.194;12.104;2022-12-28T11:23:45;6.47;;;6.00;;
8088;SDS011;57635;49.194;12.104;2022-12-28T11:26:13;6.83;;;6.30;;
8088;SDS011;57635;49.194;12.104;2022-12-28T11:28:41;7.37;;;6.80;;
8088;SDS011;57635;49.194;12.104;2022-12-28T11:31:15;6.90;;;6.40;;
8088;SDS011;57635;49.194;12.104;2022-12-28T11:33:46;7.50;;;6.93;;
8088;SDS011;57635;49.194;12.104;2022-12-28T11:36:17;6.90;;;6.40;;
8088;SDS011;57635;49.194;12.104;2022-12-28T11:38:46;7.50;;;6.80;;
8088;SDS011;57635;49.194;12.104;2022-12-28T11:44:47;8.03;;;7.23;;
8088;SDS011;57635;49.194;12.104;2022-12-28T11:47:24;7.43;;;6.93;;
8088;SDS011;57635;49.194;12.104;2022-12-28T11:53:16;7.93;;;7.33;;
8088;SDS011;57635;49.194;12.104;2022-12-28T11:55:48;7.10;;;6.60;;
8088;SDS011;57635;49.194;12.104;2022-12-28T12:01:42;7.70;;;7.00;;
8088;SDS011;57635;49.194;12.104;2022-12-28T12:07:15;7.50;;;6.90;;
8088;SDS011;57635;49.194;12.104;2022-12-28T12:09:45;7.57;;;6.90;;
8088;SDS011;57635;49.194;12.104;2022-12-28T12:12:33;7.07;;;6.57;;
8088;SDS011;57635;49.194;12.104;2022-12-28T12:15:02;6.93;;;6.40;;
8088;SDS011;57635;49.194;12.104;2022-12-28T12:17:38;5.70;;;5.30;;
8088;SDS011;57635;49.194;12.104;2022-12-28T12:20:16;6.70;;;6.20;;
8088;SDS011;57635;49.194;12.104;2022-12-28T12:22:47;6.70;;;6.10;;
8088;SDS011;57635;49.194;12.104;2022-12-28T12:25:17;6.83;;;6.27;;
8088;SDS011;57635;49.194;12.104;2022-12-28T12:27:48;5.93;;;5.53;;
8088;SDS011;57635;49.194;12.104;2022-12-28T12:30:20;6.30;;;5.80;;
8088;SDS011;57635;49.194;12.104;2022-12-28T12:32:50;6.50;;;6.00;;
8088;SDS011;57635;49.194;12.104;2022-12-28T12:35:21;6.70;;;6.10;;
8088;SDS011;57635;49.194;12.104;2022-12-28T12:37:51;7.03;;;6.53;;
8088;SDS011;57635;49.194;12.104;2022-12-28T12:40:35;6.47;;;5.93;;
8088;SDS011;57635;49.194;12.104;2022-12-28T12:43:26;6.20;;;5.80;;
8088;SDS011;57635;49.194;12.104;2022-12-28T12:46:01;6.60;;;6.10;;
8088;SDS011;57635;49.194;12.104;2022-12-28T12:48:41;6.63;;;6.23;;
8088;SDS011;57635;49.194;12.104;2022-12-28T12:51:21;6.67;;;6.27;;
8088;SDS011;57635;49.194;12.104;2022-12-28T12:53:56;7.37;;;6.77;;
8088;SDS011;57635;49.194;12.104;2022-12-28T12:56:34;7.10;;;6.50;;
8088;SDS011;57635;49.194;12.104;2022-12-28T12:59:13;7.83;;;7.00;;
8088;SDS011;57635;49.194;12.104;2022-12-28T13:01:50;8.00;;;7.30;;
8088;SDS011;57635;49.194;12.104;2022-12-28T13:04:21;7.50;;;6.80;;
8088;SDS011;57635;49.194;12.104;2022-12-28T13:06:53;8.40;;;7.60;;
8088;SDS011;57635;49.194;12.104;2022-12-28T13:09:23;7.90;;;7.20;;
8088;SDS011;57635;49.194;12.104;2022-12-28T13:11:52;8.00;;;7.33;;
8088;SDS011;57635;49.194;12.104;2022-12-28T13:14:20;8.67;;;7.87;;
8088;SDS011;57635;49.194;12.104;2022-12-28T13:16:50;8.90;;;7.27;;
8088;SDS011;57635;49.194;12.104;2022-12-28T13:19:19;7.00;;;6.50;;
8088;SDS011;57635;49.194;12.104;2022-12-28T13:21:48;6.93;;;6.23;;
8088;SDS011;57635;49.194;12.104;2022-12-28T13:24:19;6.80;;;6.10;;
8088;SDS011;57635;49.194;12.104;2022-12-28T13:26:48;7.13;;;6.30;;
8088;SDS011;57635;49.194;12.104;2022-12-28T13:29:17;6.50;;;6.00;;
8088;SDS011;57635;49.194;12.104;2022-12-28T13:31:46;7.00;;;6.47;;
8088;SDS011;57635;49.194;12.104;2022-12-28T13:34:16;6.63;;;6.13;;
8088;SDS011;57635;49.194;12.104;2022-12-28T13:36:46;6.13;;;5.70;;
8088;SDS011;57635;49.194;12.104;2022-12-28T13:39:14;6.50;;;6.00;;
8088;SDS011;57635;49.194;12.104;2022-12-28T13:41:46;5.63;;;5.13;;
8088;SDS011;57635;49.194;12.104;2022-12-28T13:44:17;6.53;;;5.80;;
8088;SDS011;57635;49.194;12.104;2022-12-28T13:46:49;6.50;;;6.03;;
8088;SDS011;57635;49.194;12.104;2022-12-28T13:49:19;7.20;;;6.57;;
8088;SDS011;57635;49.194;12.104;2022-12-28T13:51:48;6.70;;;6.10;;
8088;SDS011;57635;49.194;12.104;2022-12-28T13:54:18;7.37;;;6.70;;
8088;SDS011;57635;49.194;12.104;2022-12-28T13:56:50;6.40;;;5.90;;
8088;SDS011;57635;49.194;12.104;2022-12-28T13:59:39;6.70;;;6.20;;
8088;SDS011;57635;49.194;12.104;2022-12-28T14:02:11;6.73;;;6.23;;
8088;SDS011;57635;49.194;12.104;2022-12-28T14:04:41;7.57;;;6.90;;
8088;SDS011;57635;49.194;12.104;2022-12-28T14:07:19;7.10;;;6.57;;
8088;SDS011;57635;49.194;12.104;2022-12-28T14:09:49;7.47;;;6.87;;
8088;SDS011;57635;49.194;12.104;2022-12-28T14:12:18;7.47;;;6.87;;
8088;SDS011;57635;49.194;12.104;2022-12-28T14:14:46;7.70;;;6.87;;
8088;SDS011;57635;49.194;12.104;2022-12-28T14:17:14;7.53;;;6.93;;
8088;SDS011;57635;49.194;12.104;2022-12-28T14:19:42;7.53;;;6.93;;
8088;SDS011;57635;49.194;12.104;2022-12-28T14:22:27;7.67;;;6.93;;
8088;SDS011;57635;49.194;12.104;2022-12-28T14:25:00;7.30;;;6.70;;
8088;SDS011;57635;49.194;12.104;2022-12-28T14:27:31;8.00;;;7.30;;
8088;SDS011;57635;49.194;12.104;2022-12-28T14:30:02;6.97;;;6.37;;
8088;SDS011;57635;49.194;12.104;2022-12-28T14:32:31;7.87;;;7.07;;
8088;SDS011;57635;49.194;12.104;2022-12-28T14:35:12;8.73;;;7.93;;
8088;SDS011;57635;49.194;12.104;2022-12-28T14:37:42;7.50;;;6.90;;
8088;SDS011;57635;49.194;12.104;2022-12-28T14:40:14;7.60;;;7.00;;
8088;SDS011;57635;49.194;12.104;2022-12-28T14:42:49;7.20;;;6.60;;
8088;SDS011;57635;49.194;12.104;2022-12-28T14:45:20;8.37;;;7.67;;
8088;SDS011;57635;49.194;12.104;2022-12-28T14:47:53;7.90;;;7.07;;
8088;SDS011;57635;49.194;12.104;2022-12-28T14:50:22;7.77;;;7.17;;
8088;SDS011;57635;49.194;12.104;2022-12-28T14:53:00;7.73;;;7.03;;
8088;SDS011;57635;49.194;12.104;2022-12-28T14:55:29;6.83;;;6.33;;
8088;SDS011;57635;49.194;12.104;2022-12-28T14:58:00;7.60;;;6.90;;
8088;SDS011;57635;49.194;12.104;2022-12-28T15:00:31;7.97;;;7.27;;
8088;SDS011;57635;49.194;12.104;2022-12-28T15:03:11;9.13;;;8.33;;
8088;SDS011;57635;49.194;12.104;2022-12-28T15:05:43;7.70;;;6.90;;
8088;SDS011;57635;49.194;12.104;2022-12-28T15:08:12;8.00;;;7.27;;
8088;SDS011;57635;49.194;12.104;2022-12-28T15:10:41;7.63;;;6.93;;
8088;SDS011;57635;49.194;12.104;2022-12-28T15:13:11;7.30;;;6.70;;
8088;SDS011;57635;49.194;12.104;2022-12-28T15:15:38;7.67;;;6.97;;
8088;SDS011;57635;49.194;12.104;2022-12-28T15:18:06;8.10;;;7.30;;